Kuo Chia — BNBE — position and weather

sailwx.info

Track history (hours):
 
Tides and Currents Weather Stations Pressure Air Temp Water Temp Dewpoint Dewpoint Depression Visibility Wind Speed Wind Dir Waves Ship Positions

Kuo Chia

Last reported at 2017-Dec-04 10:22 UTC. Time now 2017-Dec-16 09:22 UTC.
Position N 22°34' E 120°19'.
Warning: this ship's position is 11 days out of date.

Length 169 m; draft 7.3 m.

Type: Ship (hazmat cat A). MMSI: 416363000.

Date/timePositionNaut miles runAvg speedWind from/ knotsBaromVisibWave heightAir tempDewpointWater temp
2017-Dec-04 10:22N 22°34' E 120°19'0 0.0
2017-Dec-04 09:58N 22°34' E 120°19'0 0.0
2017-Dec-04 09:28N 22°34' E 120°19'0 0.0
2017-Dec-04 08:58N 22°34' E 120°19'0 0.0
2017-Dec-04 08:28N 22°34' E 120°19'0 0.0
2017-Dec-04 07:58N 22°34' E 120°19'0 0.0
2017-Dec-04 07:28N 22°34' E 120°19'0 0.0
2017-Dec-04 06:58N 22°34' E 120°19'0 0.0
2017-Dec-04 06:28N 22°34' E 120°19'0 0.0
2017-Dec-04 05:58N 22°34' E 120°19'0 0.0
2017-Dec-04 05:28N 22°34' E 120°19'0 0.0
2017-Dec-04 04:58N 22°34' E 120°19'0 0.0
2017-Dec-04 04:28N 22°34' E 120°19'2 4.0
2017-Dec-04 04:00N 22°33' E 120°17'4 8.0
2017-Dec-04 03:30N 22°32' E 120°13'4 7.7
2017-Dec-04 03:00N 22°34' E 120°10'714.5
2017-Dec-04 02:30N 22°41' E 120°07'815.3
2017-Dec-04 02:01N 22°48' E 120°03'815.5
2017-Dec-04 01:30N 22°55' E 119°60'714.5
2017-Dec-04 01:00N 23°02' E 119°56'713.9
2017-Dec-04 00:30N 23°08' E 119°55'914.2
2017-Dec-03 23:53N 23°17' E 119°55'613.9
2017-Dec-03 23:30N 23°22' E 119°56'714.0
2017-Dec-03 23:00N 23°29' E 119°56'714.6
2017-Dec-03 22:30N 23°37' E 119°55'104 3.4
2017-Dec-02 16:21N 25°04' E 120°57'513.4
2017-Dec-02 16:00N 25°07' E 121°01'713.6
2017-Dec-02 15:30N 25°10' E 121°07'713.8
2017-Dec-02 15:00N 25°14' E 121°13'713.8
2017-Dec-02 14:30N 25°18' E 121°20'714.9
2017-Dec-02 14:00N 25°23' E 121°26'1316.0
2017-Dec-02 13:10N 25°28' E 121°40'214.5
2017-Dec-02 13:00N 25°26' E 121°42'817.0
2017-Dec-02 12:31N 25°19' E 121°46'713.0
2017-Dec-02 12:00N 25°12' E 121°46'4 7.2
2017-Dec-02 11:30N 25°09' E 121°45'0 0.0
2017-Dec-02 10:58N 25°09' E 121°45'0 0.0
2017-Dec-02 10:28N 25°09' E 121°45'0 0.0
2017-Dec-02 09:58N 25°09' E 121°45'0 0.0
2017-Dec-02 09:28N 25°09' E 121°45'0 0.0
2017-Dec-02 08:58N 25°09' E 121°45'0 0.0
2017-Dec-02 08:28N 25°09' E 121°45'0 0.0
2017-Dec-02 07:58N 25°09' E 121°45'0 0.0
2017-Dec-02 07:28N 25°09' E 121°45'0 0.0
2017-Dec-02 07:00N 25°09' E 121°45'0 0.0
2017-Dec-02 06:31N 25°09' E 121°45'0 0.0
2017-Dec-02 06:00N 25°09' E 121°45'0 0.0
2017-Dec-02 05:31N 25°09' E 121°45'0 0.0
2017-Dec-02 05:00N 25°09' E 121°45'0 0.0
2017-Dec-02 04:30N 25°09' E 121°45'0 0.0
2017-Dec-02 04:00N 25°09' E 121°45'0 0.0
2017-Dec-02 03:30N 25°09' E 121°45'1 1.3
2017-Dec-02 03:00N 25°10' E 121°45'611.6
2017-Dec-02 02:30N 25°15' E 121°45'815.9
2017-Dec-02 02:00N 25°23' E 121°49'74214.6
2017-Nov-29 23:00N 32°33' E 133°20'9915.6
2017-Nov-29 16:39N 33°42' E 134°45'216.5
2017-Nov-29 16:30N 33°44' E 134°47'916.9
2017-Nov-29 15:58N 33°51' E 134°53'817.1
2017-Nov-29 15:30N 33°59' E 134°54'917.2
2017-Nov-29 15:00N 34°08' E 134°56'815.0
2017-Nov-29 14:30N 34°15' E 134°58'816.2
2017-Nov-29 14:01N 34°23' E 135°01'917.4
2017-Nov-29 13:30N 34°29' E 135°09'816.4
2017-Nov-29 13:01N 34°35' E 135°15'5 9.4
2017-Nov-29 12:31N 34°40' E 135°14'0 0.4
2017-Nov-29 12:00N 34°40' E 135°14'0 0.0
2017-Nov-29 11:30N 34°40' E 135°14'0 0.0
2017-Nov-29 11:00N 34°40' E 135°14'0 0.0
2017-Nov-29 10:30N 34°40' E 135°14'0 0.0
2017-Nov-29 10:00N 34°40' E 135°14'0 0.0
2017-Nov-29 09:30N 34°40' E 135°14'0 0.0
2017-Nov-29 09:00N 34°40' E 135°14'0 0.0
2017-Nov-29 08:27N 34°40' E 135°14'0 0.0
2017-Nov-29 08:00N 34°40' E 135°14'0 0.0
2017-Nov-29 07:30N 34°40' E 135°14'0 0.0
2017-Nov-29 07:00N 34°40' E 135°14'0 0.0
2017-Nov-29 06:30N 34°40' E 135°14'0 0.0
2017-Nov-29 06:00N 34°40' E 135°14'0 0.0
2017-Nov-29 05:30N 34°40' E 135°14'0 0.0
2017-Nov-29 05:00N 34°40' E 135°14'0 0.0
2017-Nov-29 04:30N 34°40' E 135°14'0 0.0
2017-Nov-29 03:56N 34°40' E 135°14'0 0.0
2017-Nov-29 03:29N 34°40' E 135°14'0 0.0
2017-Nov-29 02:59N 34°40' E 135°14'0 0.0
2017-Nov-29 02:29N 34°40' E 135°14'0 0.0
2017-Nov-29 01:59N 34°40' E 135°14'0 0.0
2017-Nov-29 01:29N 34°40' E 135°14'0 0.0
2017-Nov-29 00:59N 34°40' E 135°14'0 0.0
2017-Nov-29 00:29N 34°40' E 135°14'0 0.0
2017-Nov-28 23:59N 34°40' E 135°14'0 0.0
2017-Nov-28 23:29N 34°40' E 135°14'0 0.0
2017-Nov-28 22:59N 34°40' E 135°14'0 0.0
2017-Nov-28 22:26N 34°40' E 135°14'1 1.6
2017-Nov-28 22:00N 34°40' E 135°15'4 8.0
2017-Nov-28 21:31N 34°38' E 135°19'4 8.3
2017-Nov-28 21:00N 34°39' E 135°24'0 0.1
2017-Nov-28 20:29N 34°39' E 135°24'0 0.0
2017-Nov-28 19:59N 34°39' E 135°24'0 0.0
2017-Nov-28 19:29N 34°39' E 135°24'0 0.0
2017-Nov-28 18:59N 34°39' E 135°24'0 0.0
2017-Nov-28 18:29N 34°39' E 135°24'0 0.0
2017-Nov-28 17:59N 34°39' E 135°24'0 0.0
2017-Nov-28 17:29N 34°39' E 135°24'0 0.0
2017-Nov-28 16:59N 34°39' E 135°24'0 0.0
2017-Nov-28 16:29N 34°39' E 135°24'0 0.0
2017-Nov-28 15:59N 34°39' E 135°24'0 0.0
2017-Nov-28 14:59N 34°39' E 135°24'0 0.0
2017-Nov-28 14:29N 34°39' E 135°24'0 0.0
2017-Nov-28 13:59N 34°39' E 135°24'0 0.0
2017-Nov-28 13:29N 34°39' E 135°24'0 0.0
2017-Nov-28 12:59N 34°39' E 135°24'0 0.0
2017-Nov-28 12:29N 34°39' E 135°24'0 0.0
2017-Nov-28 11:59N 34°39' E 135°24'0 0.0
2017-Nov-28 11:29N 34°39' E 135°24'0 0.0
2017-Nov-28 10:59N 34°39' E 135°24'0 0.3
2017-Nov-28 10:31N 34°39' E 135°24'3 6.1
2017-Nov-28 10:00N 34°37' E 135°21'611.8
2017-Nov-28 09:30N 34°33' E 135°16'816.7
2017-Nov-28 09:00N 34°26' E 135°09'816.7
2017-Nov-28 08:30N 34°20' E 135°02'815.5
2017-Nov-28 08:01N 34°13' E 134°60'612.0
2017-Nov-28 07:30N 34°07' E 135°00'510.4
2017-Nov-28 07:00N 34°02' E 134°60'612.3
2017-Nov-28 06:30N 33°55' E 135°00'714.3
2017-Nov-28 06:00N 33°48' E 135°01'8011.9
2017-Nov-27 23:14N 33°56' E 136°37'715.1
2017-Nov-27 22:48N 34°01' E 136°42'515.6
2017-Nov-27 22:28N 34°05' E 136°46'2415.8
2017-Nov-27 20:58N 34°25' E 137°01'715.4
2017-Nov-27 20:30N 34°32' E 137°02'712.3
2017-Nov-27 19:57N 34°37' E 136°56'816.9
2017-Nov-27 19:30N 34°42' E 136°49'817.3
2017-Nov-27 19:00N 34°50' E 136°45'917.3
2017-Nov-27 18:31N 34°58' E 136°46'510.3
2017-Nov-27 18:00N 35°02' E 136°50'1 1.1
2017-Nov-27 17:30N 35°03' E 136°50'0 0.0
2017-Nov-27 17:00N 35°03' E 136°50'0 0.0
2017-Nov-27 16:30N 35°03' E 136°50'0 0.0
2017-Nov-27 16:00N 35°03' E 136°50'0 0.0
2017-Nov-27 15:30N 35°03' E 136°50'0 0.0
2017-Nov-27 15:00N 35°03' E 136°50'0 0.0
2017-Nov-27 14:30N 35°03' E 136°50'0 0.0
2017-Nov-27 14:00N 35°03' E 136°50'0 0.0
2017-Nov-27 13:30N 35°03' E 136°50'0 0.1
2017-Nov-27 12:59N 35°03' E 136°50'0 0.1
2017-Nov-27 12:29N 35°03' E 136°50'0 0.0
2017-Nov-27 11:59N 35°03' E 136°50'0 0.0
2017-Nov-27 11:29N 35°03' E 136°50'0 0.0
2017-Nov-27 10:59N 35°03' E 136°50'0 0.0
2017-Nov-27 10:29N 35°03' E 136°50'0 0.0
2017-Nov-27 09:59N 35°03' E 136°50'0 0.0
2017-Nov-27 09:29N 35°03' E 136°50'0 0.0
2017-Nov-27 09:00N 35°03' E 136°50'2 3.7
2017-Nov-27 08:31N 35°01' E 136°50'612.3
2017-Nov-27 08:01N 34°55' E 136°47'815.9
2017-Nov-27 07:30N 34°47' E 136°47'816.0
2017-Nov-27 07:00N 34°41' E 136°52'816.2
2017-Nov-27 06:30N 34°35' E 136°59'611.5
2017-Nov-27 05:59N 34°30' E 137°04'27 8.5
2017-Nov-27 02:45N 34°05' E 136°49'515.5
2017-Nov-27 02:27N 34°02' E 136°44'  
Track history (hours):
 
Tides and Currents Weather Stations Pressure Air Temp Water Temp Dewpoint Dewpoint Depression Visibility Wind Speed Wind Dir Waves Ship Positions

Kuo Chia

Last reported at 2017-Dec-04 10:22 UTC. Time now 2017-Dec-16 09:22 UTC.
Position N 22°34' E 120°19'.
Warning: this ship's position is 11 days out of date.

Length 169 m; draft 7.3 m.

Type: Ship (hazmat cat A). MMSI: 416363000.

Date/timePositionNaut miles runAvg speedWind from/ knotsBaromVisibWave heightAir tempDewpointWater temp
2017-Dec-04 10:22N 22°34' E 120°19'0 0.0
2017-Dec-04 09:58N 22°34' E 120°19'0 0.0
2017-Dec-04 09:28N 22°34' E 120°19'0 0.0
2017-Dec-04 08:58N 22°34' E 120°19'0 0.0
2017-Dec-04 08:28N 22°34' E 120°19'0 0.0
2017-Dec-04 07:58N 22°34' E 120°19'0 0.0
2017-Dec-04 07:28N 22°34' E 120°19'0 0.0
2017-Dec-04 06:58N 22°34' E 120°19'0 0.0
2017-Dec-04 06:28N 22°34' E 120°19'0 0.0
2017-Dec-04 05:58N 22°34' E 120°19'0 0.0
2017-Dec-04 05:28N 22°34' E 120°19'0 0.0
2017-Dec-04 04:58N 22°34' E 120°19'0 0.0
2017-Dec-04 04:28N 22°34' E 120°19'2 4.0
2017-Dec-04 04:00N 22°33' E 120°17'4 8.0
2017-Dec-04 03:30N 22°32' E 120°13'4 7.7
2017-Dec-04 03:00N 22°34' E 120°10'714.5
2017-Dec-04 02:30N 22°41' E 120°07'815.3
2017-Dec-04 02:01N 22°48' E 120°03'815.5
2017-Dec-04 01:30N 22°55' E 119°60'714.5
2017-Dec-04 01:00N 23°02' E 119°56'713.9
2017-Dec-04 00:30N 23°08' E 119°55'914.2
2017-Dec-03 23:53N 23°17' E 119°55'613.9
2017-Dec-03 23:30N 23°22' E 119°56'714.0
2017-Dec-03 23:00N 23°29' E 119°56'714.6
2017-Dec-03 22:30N 23°37' E 119°55'104 3.4
2017-Dec-02 16:21N 25°04' E 120°57'513.4
2017-Dec-02 16:00N 25°07' E 121°01'713.6
2017-Dec-02 15:30N 25°10' E 121°07'713.8
2017-Dec-02 15:00N 25°14' E 121°13'713.8
2017-Dec-02 14:30N 25°18' E 121°20'714.9
2017-Dec-02 14:00N 25°23' E 121°26'1316.0
2017-Dec-02 13:10N 25°28' E 121°40'214.5
2017-Dec-02 13:00N 25°26' E 121°42'817.0
2017-Dec-02 12:31N 25°19' E 121°46'713.0
2017-Dec-02 12:00N 25°12' E 121°46'4 7.2
2017-Dec-02 11:30N 25°09' E 121°45'0 0.0
2017-Dec-02 10:58N 25°09' E 121°45'0 0.0
2017-Dec-02 10:28N 25°09' E 121°45'0 0.0
2017-Dec-02 09:58N 25°09' E 121°45'0 0.0
2017-Dec-02 09:28N 25°09' E 121°45'0 0.0
2017-Dec-02 08:58N 25°09' E 121°45'0 0.0
2017-Dec-02 08:28N 25°09' E 121°45'0 0.0
2017-Dec-02 07:58N 25°09' E 121°45'0 0.0
2017-Dec-02 07:28N 25°09' E 121°45'0 0.0
2017-Dec-02 07:00N 25°09' E 121°45'0 0.0
2017-Dec-02 06:31N 25°09' E 121°45'0 0.0
2017-Dec-02 06:00N 25°09' E 121°45'0 0.0
2017-Dec-02 05:31N 25°09' E 121°45'0 0.0
2017-Dec-02 05:00N 25°09' E 121°45'0 0.0
2017-Dec-02 04:30N 25°09' E 121°45'0 0.0
2017-Dec-02 04:00N 25°09' E 121°45'0 0.0
2017-Dec-02 03:30N 25°09' E 121°45'1 1.3
2017-Dec-02 03:00N 25°10' E 121°45'611.6
2017-Dec-02 02:30N 25°15' E 121°45'815.9
2017-Dec-02 02:00N 25°23' E 121°49'74214.6
2017-Nov-29 23:00N 32°33' E 133°20'9915.6
2017-Nov-29 16:39N 33°42' E 134°45'216.5
2017-Nov-29 16:30N 33°44' E 134°47'916.9
2017-Nov-29 15:58N 33°51' E 134°53'817.1
2017-Nov-29 15:30N 33°59' E 134°54'917.2
2017-Nov-29 15:00N 34°08' E 134°56'815.0
2017-Nov-29 14:30N 34°15' E 134°58'816.2
2017-Nov-29 14:01N 34°23' E 135°01'917.4
2017-Nov-29 13:30N 34°29' E 135°09'816.4
2017-Nov-29 13:01N 34°35' E 135°15'5 9.4
2017-Nov-29 12:31N 34°40' E 135°14'0 0.4
2017-Nov-29 12:00N 34°40' E 135°14'0 0.0
2017-Nov-29 11:30N 34°40' E 135°14'0 0.0
2017-Nov-29 11:00N 34°40' E 135°14'0 0.0
2017-Nov-29 10:30N 34°40' E 135°14'0 0.0
2017-Nov-29 10:00N 34°40' E 135°14'0 0.0
2017-Nov-29 09:30N 34°40' E 135°14'0 0.0
2017-Nov-29 09:00N 34°40' E 135°14'0 0.0
2017-Nov-29 08:27N 34°40' E 135°14'0 0.0
2017-Nov-29 08:00N 34°40' E 135°14'0 0.0
2017-Nov-29 07:30N 34°40' E 135°14'0 0.0
2017-Nov-29 07:00N 34°40' E 135°14'0 0.0
2017-Nov-29 06:30N 34°40' E 135°14'0 0.0
2017-Nov-29 06:00N 34°40' E 135°14'0 0.0
2017-Nov-29 05:30N 34°40' E 135°14'0 0.0
2017-Nov-29 05:00N 34°40' E 135°14'0 0.0
2017-Nov-29 04:30N 34°40' E 135°14'0 0.0
2017-Nov-29 03:56N 34°40' E 135°14'0 0.0
2017-Nov-29 03:29N 34°40' E 135°14'0 0.0
2017-Nov-29 02:59N 34°40' E 135°14'0 0.0
2017-Nov-29 02:29N 34°40' E 135°14'0 0.0
2017-Nov-29 01:59N 34°40' E 135°14'0 0.0
2017-Nov-29 01:29N 34°40' E 135°14'0 0.0
2017-Nov-29 00:59N 34°40' E 135°14'0 0.0
2017-Nov-29 00:29N 34°40' E 135°14'0 0.0
2017-Nov-28 23:59N 34°40' E 135°14'0 0.0
2017-Nov-28 23:29N 34°40' E 135°14'0 0.0
2017-Nov-28 22:59N 34°40' E 135°14'0 0.0
2017-Nov-28 22:26N 34°40' E 135°14'1 1.6
2017-Nov-28 22:00N 34°40' E 135°15'4 8.0
2017-Nov-28 21:31N 34°38' E 135°19'4 8.3
2017-Nov-28 21:00N 34°39' E 135°24'0 0.1
2017-Nov-28 20:29N 34°39' E 135°24'0 0.0
2017-Nov-28 19:59N 34°39' E 135°24'0 0.0
2017-Nov-28 19:29N 34°39' E 135°24'0 0.0
2017-Nov-28 18:59N 34°39' E 135°24'0 0.0
2017-Nov-28 18:29N 34°39' E 135°24'0 0.0
2017-Nov-28 17:59N 34°39' E 135°24'0 0.0
2017-Nov-28 17:29N 34°39' E 135°24'0 0.0
2017-Nov-28 16:59N 34°39' E 135°24'0 0.0
2017-Nov-28 16:29N 34°39' E 135°24'0 0.0
2017-Nov-28 15:59N 34°39' E 135°24'0 0.0
2017-Nov-28 14:59N 34°39' E 135°24'0 0.0
2017-Nov-28 14:29N 34°39' E 135°24'0 0.0
2017-Nov-28 13:59N 34°39' E 135°24'0 0.0
2017-Nov-28 13:29N 34°39' E 135°24'0 0.0
2017-Nov-28 12:59N 34°39' E 135°24'0 0.0
2017-Nov-28 12:29N 34°39' E 135°24'0 0.0
2017-Nov-28 11:59N 34°39' E 135°24'0 0.0
2017-Nov-28 11:29N 34°39' E 135°24'0 0.0
2017-Nov-28 10:59N 34°39' E 135°24'0 0.3
2017-Nov-28 10:31N 34°39' E 135°24'3 6.1
2017-Nov-28 10:00N 34°37' E 135°21'611.8
2017-Nov-28 09:30N 34°33' E 135°16'816.7
2017-Nov-28 09:00N 34°26' E 135°09'816.7
2017-Nov-28 08:30N 34°20' E 135°02'815.5
2017-Nov-28 08:01N 34°13' E 134°60'612.0
2017-Nov-28 07:30N 34°07' E 135°00'510.4
2017-Nov-28 07:00N 34°02' E 134°60'612.3
2017-Nov-28 06:30N 33°55' E 135°00'714.3
2017-Nov-28 06:00N 33°48' E 135°01'8011.9
2017-Nov-27 23:14N 33°56' E 136°37'715.1
2017-Nov-27 22:48N 34°01' E 136°42'515.6
2017-Nov-27 22:28N 34°05' E 136°46'2415.8
2017-Nov-27 20:58N 34°25' E 137°01'715.4
2017-Nov-27 20:30N 34°32' E 137°02'712.3
2017-Nov-27 19:57N 34°37' E 136°56'816.9
2017-Nov-27 19:30N 34°42' E 136°49'817.3
2017-Nov-27 19:00N 34°50' E 136°45'917.3
2017-Nov-27 18:31N 34°58' E 136°46'510.3
2017-Nov-27 18:00N 35°02' E 136°50'1 1.1
2017-Nov-27 17:30N 35°03' E 136°50'0 0.0
2017-Nov-27 17:00N 35°03' E 136°50'0 0.0
2017-Nov-27 16:30N 35°03' E 136°50'0 0.0
2017-Nov-27 16:00N 35°03' E 136°50'0 0.0
2017-Nov-27 15:30N 35°03' E 136°50'0 0.0
2017-Nov-27 15:00N 35°03' E 136°50'0 0.0
2017-Nov-27 14:30N 35°03' E 136°50'0 0.0
2017-Nov-27 14:00N 35°03' E 136°50'0 0.0
2017-Nov-27 13:30N 35°03' E 136°50'0 0.1
2017-Nov-27 12:59N 35°03' E 136°50'0 0.1
2017-Nov-27 12:29N 35°03' E 136°50'0 0.0
2017-Nov-27 11:59N 35°03' E 136°50'0 0.0
2017-Nov-27 11:29N 35°03' E 136°50'0 0.0
2017-Nov-27 10:59N 35°03' E 136°50'0 0.0
2017-Nov-27 10:29N 35°03' E 136°50'0 0.0
2017-Nov-27 09:59N 35°03' E 136°50'0 0.0
2017-Nov-27 09:29N 35°03' E 136°50'0 0.0
2017-Nov-27 09:00N 35°03' E 136°50'2 3.7
2017-Nov-27 08:31N 35°01' E 136°50'612.3
2017-Nov-27 08:01N 34°55' E 136°47'815.9
2017-Nov-27 07:30N 34°47' E 136°47'816.0
2017-Nov-27 07:00N 34°41' E 136°52'816.2
2017-Nov-27 06:30N 34°35' E 136°59'611.5
2017-Nov-27 05:59N 34°30' E 137°04'27 8.5
2017-Nov-27 02:45N 34°05' E 136°49'515.5
2017-Nov-27 02:27N 34°02' E 136°44'  

Dump ship's entire track history